Time;durP1;ratioP1;P1;durP2;ratioP2;P2;SDS_P1;SDS_P2;PMS_P1;PMS_P2;Temp;Humidity;BMP_temperature;BMP_pressure;BME280_temperature;BME280_humidity;BME280_pressure;Samples;Min_cycle;Max_cycle;Signal;HPM_P1;HPM_P2
2022/01/08 00:01:28;;;;;;;50.55;22.63;;;;;;;-0.43;100.00;99446.78;5012789;28;20064;-76
2022/01/08 00:03:53;;;;;;;46.35;21.80;;;;;;;-0.43;100.00;99446.78;5011537;28;20018;-77
2022/01/08 00:06:19;;;;;;;55.97;24.00;;;;;;;-0.46;100.00;99444.13;5011509;28;20024;-76
2022/01/08 00:08:44;;;;;;;58.95;24.35;;;;;;;-0.49;100.00;99452.88;5011603;28;20033;-76
2022/01/08 00:11:14;;;;;;;55.10;24.00;;;;;;;-0.47;100.00;99442.41;5013426;28;20029;-77
2022/01/08 00:13:40;;;;;;;55.70;24.65;;;;;;;-0.48;100.00;99440.66;5011174;28;20478;-77
2022/01/08 00:16:06;;;;;;;51.63;23.88;;;;;;;-0.48;100.00;99449.41;5012525;28;20422;-76
2022/01/08 00:18:32;;;;;;;54.60;23.52;;;;;;;-0.38;100.00;99447.66;5012529;28;20483;-76
2022/01/08 00:20:57;;;;;;;53.88;24.58;;;;;;;-0.44;100.00;99441.53;5012670;28;20053;-76
2022/01/08 00:23:23;;;;;;;58.35;25.20;;;;;;;-0.40;100.00;99444.16;5012471;28;20472;-77
2022/01/08 00:25:48;;;;;;;53.88;23.30;;;;;;;-0.49;100.00;99439.75;5011926;28;20021;-76
2022/01/08 00:28:13;;;;;;;55.90;25.08;;;;;;;-0.49;100.00;99436.28;5012500;28;20026;-76
2022/01/08 00:30:38;;;;;;;56.65;26.05;;;;;;;-0.43;100.00;99441.53;5011113;28;20076;-77
2022/01/08 00:33:04;;;;;;;50.65;24.48;;;;;;;-0.36;100.00;99435.41;5012540;28;20018;-77
2022/01/08 00:35:31;;;;;;;55.40;24.98;;;;;;;-0.51;100.00;99427.53;5012645;28;20391;-77
2022/01/08 00:37:57;;;;;;;57.05;24.90;;;;;;;-0.45;100.00;99435.41;5012225;28;20030;-76
2022/01/08 00:40:23;;;;;;;55.78;25.38;;;;;;;-0.23;100.00;99433.69;5013734;28;20030;-76
2022/01/08 00:42:48;;;;;;;51.58;24.83;;;;;;;-0.38;100.00;99421.41;5016088;28;20104;-76
2022/01/08 00:45:14;;;;;;;50.85;26.08;;;;;;;-0.53;100.00;99424.91;5016176;28;20426;-76
2022/01/08 00:47:39;;;;;;;51.22;24.50;;;;;;;-0.46;100.00;99431.91;5015053;28;20041;-77
2022/01/08 00:50:05;;;;;;;49.63;23.85;;;;;;;-0.53;100.00;99430.16;5016281;28;20089;-76
2022/01/08 00:52:31;;;;;;;44.30;23.08;;;;;;;-0.55;100.00;99431.91;5016118;28;20038;-76
2022/01/08 00:54:56;;;;;;;41.55;21.23;;;;;;;-0.59;100.00;99431.00;5014811;28;20129;-76
2022/01/08 00:57:22;;;;;;;40.40;20.83;;;;;;;-0.61;100.00;99427.50;5014670;28;20044;-76
2022/01/08 00:59:47;;;;;;;42.25;21.25;;;;;;;-0.62;100.00;99422.28;5015951;28;20034;-76
2022/01/08 01:02:12;;;;;;;42.70;20.17;;;;;;;-0.63;100.00;99423.13;5015941;28;20021;-76
2022/01/08 01:04:38;;;;;;;40.10;20.88;;;;;;;-0.68;100.00;99431.00;5014645;28;20021;-76
2022/01/08 01:07:03;;;;;;;44.05;21.48;;;;;;;-0.68;100.00;99436.25;5015826;28;20034;-76
2022/01/08 01:09:28;;;;;;;39.90;20.40;;;;;;;-0.66;100.00;99424.00;5014431;28;20018;-76
2022/01/08 01:11:57;;;;;;;40.00;20.35;;;;;;;-0.71;100.00;99426.63;5015678;28;20033;-76
2022/01/08 01:14:23;;;;;;;39.25;20.13;;;;;;;-0.70;100.00;99424.88;5015768;28;20036;-77
2022/01/08 01:16:48;;;;;;;39.08;19.55;;;;;;;-0.75;100.00;99419.63;5015774;28;20152;-77
2022/01/08 01:19:14;;;;;;;42.85;20.83;;;;;;;-0.70;100.00;99424.88;5015684;28;20113;-77
2022/01/08 01:21:39;;;;;;;45.60;22.63;;;;;;;-0.73;100.00;99432.72;5014402;28;20116;-76
2022/01/08 01:24:11;;;;;;;45.33;21.40;;;;;;;-0.72;100.00;99429.25;5014371;28;20119;-76
2022/01/08 01:26:41;;;;;;;44.88;22.83;;;;;;;-0.59;100.00;99425.75;5015517;28;20030;-76
2022/01/08 01:29:31;;;;;;;44.92;23.20;;;;;;;-0.52;100.00;99423.16;5015346;28;20029;-77
2022/01/08 01:48:22;;;;;;;52.67;24.67;;;;;;;-0.47;100.00;99424.03;5015372;28;19960;-77
2022/01/08 01:50:48;;;;;;;55.53;27.42;;;;;;;-0.54;100.00;99432.78;5014252;28;20025;-76
2022/01/08 01:53:14;;;;;;;59.67;28.48;;;;;;;-0.35;100.00;99433.66;5014710;28;20026;-76
2022/01/08 01:55:40;;;;;;;61.78;30.13;;;;;;;-0.44;100.00;99425.78;5014683;28;20156;-77
2022/01/08 01:58:06;;;;;;;63.25;29.85;;;;;;;-0.53;100.00;99435.41;5013477;28;20137;-77
2022/01/08 02:00:32;;;;;;;66.55;29.77;;;;;;;-0.44;100.00;99425.78;5014626;28;20465;-76
2022/01/08 02:02:59;;;;;;;65.60;30.45;;;;;;;-0.40;100.00;99428.41;5014560;28;20526;-76
2022/01/08 02:05:25;;;;;;;61.28;29.88;;;;;;;-0.43;100.00;99433.66;5013272;28;20049;-77
2022/01/08 02:07:50;;;;;;;64.57;31.02;;;;;;;-0.41;100.00;99429.28;5014657;28;20216;-76
2022/01/08 02:10:16;;;;;;;57.55;29.23;;;;;;;-0.36;100.00;99424.91;5014313;28;20030;-77
2022/01/08 02:12:41;;;;;;;61.10;29.30;;;;;;;-0.40;100.00;99436.28;5013120;28;20112;-76
2022/01/08 02:15:07;;;;;;;67.75;31.00;;;;;;;-0.40;100.00;99436.28;5012935;28;20037;-76
2022/01/08 02:17:32;;;;;;;62.10;31.33;;;;;;;-0.42;100.00;99427.56;5014225;28;20022;-76
2022/01/08 02:19:57;;;;;;;67.72;31.38;;;;;;;-0.24;100.00;99434.56;5012715;28;20022;-76
2022/01/08 02:22:23;;;;;;;63.78;30.90;;;;;;;-0.23;100.00;99438.03;5014213;28;20116;-76
2022/01/08 02:24:48;;;;;;;61.40;30.30;;;;;;;-0.16;100.00;99433.69;5014096;28;20030;-76
2022/01/08 02:27:15;;;;;;;59.22;31.13;;;;;;;-0.25;100.00;99434.53;5014017;28;20509;-76
2022/01/08 02:29:41;;;;;;;60.20;30.17;;;;;;;-0.17;100.00;99435.44;5012642;28;20014;-76
2022/01/08 02:32:15;;;;;;;64.40;32.35;;;;;;;-0.29;100.00;99427.56;5013980;28;20401;-76
2022/01/08 02:34:41;;;;;;;62.13;30.35;;;;;;;-0.30;100.00;99436.28;5014014;28;20026;-76
2022/01/08 02:37:08;;;;;;;64.30;31.67;;;;;;;-0.20;100.00;99442.41;5012768;28;20033;-77
2022/01/08 02:39:39;;;;;;;72.35;32.10;;;;;;;-0.21;100.00;99445.94;5013783;28;20057;-76
2022/01/08 02:42:06;;;;;;;63.83;30.60;;;;;;;-0.27;100.00;99447.69;5013838;28;20057;-77
2022/01/08 02:44:33;;;;;;;64.38;30.67;;;;;;;-0.24;100.00;99446.81;5014005;28;20026;-76
2022/01/08 02:46:58;;;;;;;61.17;31.20;;;;;;;-0.26;100.00;99453.81;5012588;28;20104;-77
2022/01/08 02:49:23;;;;;;;64.18;31.75;;;;;;;-0.39;100.00;99451.16;5013831;28;20045;-76
2022/01/08 02:51:50;;;;;;;64.40;30.88;;;;;;;-0.30;100.00;99442.41;5013882;28;20060;-77
2022/01/08 02:54:15;;;;;;;62.15;32.28;;;;;;;-0.33;100.00;99438.94;5013847;28;20087;-76
2022/01/08 02:56:43;;;;;;;60.08;31.35;;;;;;;-0.21;100.00;99452.06;5012570;28;20025;-76
2022/01/08 02:59:08;;;;;;;62.60;31.30;;;;;;;-0.43;100.00;99444.16;5012317;28;20037;-76
2022/01/08 03:01:34;;;;;;;64.43;31.23;;;;;;;-0.40;100.00;99446.78;5013563;28;20051;-76
2022/01/08 03:04:00;;;;;;;62.42;30.63;;;;;;;-0.40;100.00;99449.41;5013029;28;20443;-76
2022/01/08 03:06:25;;;;;;;61.28;31.15;;;;;;;-0.39;100.00;99448.53;5012260;28;20029;-76
2022/01/08 03:08:50;;;;;;;64.43;31.83;;;;;;;-0.47;100.00;99450.28;5013762;28;20032;-76
2022/01/08 03:11:16;;;;;;;61.42;31.42;;;;;;;-0.47;100.00;99445.03;5013420;28;20080;-76
2022/01/08 03:13:41;;;;;;;61.55;31.83;;;;;;;-0.49;100.00;99436.28;5013454;28;20455;-76
2022/01/08 03:16:07;;;;;;;60.08;30.10;;;;;;;-0.46;100.00;99441.50;5013680;28;20026;-76
2022/01/08 03:18:34;;;;;;;57.22;30.60;;;;;;;-0.48;100.00;99441.53;5013544;28;20022;-77
2022/01/08 03:21:02;;;;;;;55.72;28.98;;;;;;;-0.47;100.00;99439.78;5012248;28;20025;-77
2022/01/08 03:23:37;;;;;;;63.95;31.08;;;;;;;-0.44;100.00;99450.28;5012157;28;20029;-77
2022/01/08 03:26:04;;;;;;;62.95;31.05;;;;;;;-0.46;100.00;99446.75;5013406;28;20104;-77
2022/01/08 03:28:29;;;;;;;60.25;28.92;;;;;;;-0.40;100.00;99448.53;5011994;28;20447;-77
2022/01/08 03:30:54;;;;;;;60.00;30.15;;;;;;;-0.41;100.00;99447.66;5013309;28;20036;-77
2022/01/08 03:33:19;;;;;;;56.45;30.20;;;;;;;-0.37;100.00;99441.53;5013059;28;20026;-77
2022/01/08 03:35:45;;;;;;;56.22;29.23;;;;;;;-0.45;100.00;99427.53;5013227;28;20212;-77
2022/01/08 03:38:10;;;;;;;57.60;30.60;;;;;;;-0.41;100.00;99431.91;5013858;28;20026;-77
2022/01/08 03:40:35;;;;;;;59.53;29.88;;;;;;;-0.38;100.00;99434.53;5013282;28;20398;-77
2022/01/08 03:43:01;;;;;;;62.80;29.90;;;;;;;-0.46;100.00;99444.13;5013146;28;20017;-77
2022/01/08 03:45:26;;;;;;;54.05;29.65;;;;;;;-0.43;100.00;99428.41;5013027;28;20395;-77
2022/01/08 03:50:17;;;;;;;61.28;30.52;;;;;;;-0.32;100.00;99427.56;5013016;28;20052;-77
2022/01/08 03:52:44;;;;;;;54.58;29.85;;;;;;;-0.42;100.00;99430.19;5013228;28;20359;-77
2022/01/08 03:55:10;;;;;;;59.83;30.45;;;;;;;-0.40;100.00;99436.28;5011541;28;20030;-77
2022/01/08 03:57:35;;;;;;;58.20;28.63;;;;;;;-0.35;100.00;99437.16;5012876;28;20105;-77
2022/01/08 04:00:00;;;;;;;59.22;30.30;;;;;;;-0.45;100.00;99432.78;5012640;28;20104;-77
2022/01/08 04:02:26;;;;;;;66.85;32.72;;;;;;;-0.40;100.00;99424.91;5012694;28;20047;-77
2022/01/08 04:04:51;;;;;;;61.83;30.85;;;;;;;-0.47;100.00;99429.28;5012722;28;20030;-78
2022/01/08 04:07:16;;;;;;;66.80;32.58;;;;;;;-0.50;100.00;99429.28;5012742;28;20026;-77
2022/01/08 04:09:42;;;;;;;63.38;31.20;;;;;;;-0.43;100.00;99431.03;5012601;28;20095;-77
2022/01/08 04:12:08;;;;;;;65.38;32.60;;;;;;;-0.53;100.00;99419.66;5012640;28;20080;-78
2022/01/08 04:14:49;;;;;;;61.47;32.10;;;;;;;-0.41;100.00;99424.03;5014368;28;20044;-77
2022/01/08 04:17:16;;;;;;;64.88;30.95;;;;;;;-0.33;100.00;99438.94;5016745;28;20041;-77
2022/01/08 04:19:41;;;;;;;60.80;30.40;;;;;;;-0.44;100.00;99439.78;5015164;28;20060;-77
2022/01/08 04:22:11;;;;;;;64.30;30.83;;;;;;;-0.51;100.00;99446.75;5016503;28;20459;-77
2022/01/08 04:24:37;;;;;;;65.55;31.60;;;;;;;-0.53;100.00;99452.88;5016727;28;20072;-77
2022/01/08 04:27:03;;;;;;;61.10;31.48;;;;;;;-0.50;100.00;99451.16;5016451;28;20026;-77
2022/01/08 04:29:28;;;;;;;59.35;31.50;;;;;;;-0.47;100.00;99455.53;5015121;28;20096;-77
2022/01/08 04:31:53;;;;;;;64.78;31.30;;;;;;;-0.46;100.00;99462.50;5016431;28;20546;-77
2022/01/08 04:34:19;;;;;;;64.53;31.55;;;;;;;-0.52;100.00;99467.75;5016840;28;20101;-77
2022/01/08 04:36:44;;;;;;;60.47;32.08;;;;;;;-0.46;100.00;99473.00;5016339;28;20479;-77
2022/01/08 04:39:09;;;;;;;67.00;30.98;;;;;;;-0.62;100.00;99483.44;5016394;28;20061;-77
2022/01/08 04:41:34;;;;;;;62.40;28.42;;;;;;;-0.44;100.00;99476.53;5016189;28;20026;-77
2022/01/08 04:44:00;;;;;;;61.35;30.35;;;;;;;-0.50;100.00;99473.88;5016452;28;20045;-77
2022/01/08 04:46:25;;;;;;;61.35;30.15;;;;;;;-0.63;100.00;99480.81;5014824;28;20026;-77
2022/01/08 04:48:50;;;;;;;61.40;31.48;;;;;;;-0.62;100.00;99472.94;5016157;28;20029;-77
2022/01/08 04:51:16;;;;;;;59.60;31.60;;;;;;;-0.67;100.00;99464.22;5015946;28;20037;-77
2022/01/08 04:53:41;;;;;;;66.00;29.90;;;;;;;-0.69;100.00;99468.56;5015879;28;20155;-77
2022/01/08 04:56:06;;;;;;;67.57;31.05;;;;;;;-0.80;100.00;99464.16;5014566;28;20179;-77
2022/01/08 04:58:32;;;;;;;65.05;30.63;;;;;;;-0.77;100.00;99462.44;5014518;28;20030;-77
2022/01/08 05:00:58;;;;;;;67.40;31.67;;;;;;;-0.86;100.00;99464.16;5015684;28;20096;-77
2022/01/08 05:03:23;;;;;;;75.78;34.22;;;;;;;-0.86;100.00;99479.88;5016113;28;20088;-77
2022/01/08 05:05:48;;;;;;;66.72;32.25;;;;;;;-0.69;100.00;99469.44;5015804;28;20030;-77
2022/01/08 05:08:14;;;;;;;73.57;33.33;;;;;;;-0.75;100.00;99486.91;5015695;28;20061;-77
2022/01/08 05:10:39;;;;;;;70.90;33.08;;;;;;;-0.69;100.00;99474.69;5015598;28;20030;-77
2022/01/08 05:13:05;;;;;;;70.60;32.15;;;;;;;-0.75;100.00;99468.56;5049268;22;20087;-85
2022/01/08 05:15:32;;;;;;;75.65;32.83;;;;;;;-0.57;100.00;99475.63;5025906;28;20042;-82
2022/01/08 05:17:57;;;;;;;79.53;34.78;;;;;;;-0.76;100.00;99472.94;5025140;28;20029;-85
2022/01/08 05:20:23;;;;;;;76.60;33.25;;;;;;;-0.73;100.00;99472.06;5008807;28;20025;-85
2022/01/08 05:25:18;;;;;;;85.38;36.08;;;;;;;-0.77;100.00;99479.03;5024038;28;20489;-86
2022/01/08 05:27:44;;;;;;;80.90;34.53;;;;;;;-0.67;100.00;99474.72;5021419;28;20026;-86
2022/01/08 05:30:12;;;;;;;82.90;35.50;;;;;;;-0.81;100.00;99488.66;5024688;28;20101;-83
2022/01/08 05:32:38;;;;;;;72.25;33.80;;;;;;;-0.81;100.00;99493.00;5026905;28;20046;-85
2022/01/08 05:35:03;;;;;;;80.30;34.53;;;;;;;-0.83;100.00;99487.78;5027118;28;20037;-85
2022/01/08 05:37:29;;;;;;;79.57;34.25;;;;;;;-0.84;100.00;99490.38;5026740;28;20021;-84
2022/01/08 05:39:55;;;;;;;71.47;33.30;;;;;;;-0.76;100.00;99490.41;5027638;28;20042;-85
2022/01/08 05:42:20;;;;;;;79.75;37.17;;;;;;;-0.90;100.00;99506.94;5026243;28;20033;-85
2022/01/08 05:44:45;;;;;;;90.32;34.55;;;;;;;-0.80;100.00;99494.78;5022427;28;20038;-84
2022/01/08 05:47:11;;;;;;;83.38;36.15;;;;;;;-0.86;100.00;99500.84;5018739;28;20029;-83
2022/01/08 05:49:36;;;;;;;80.10;35.28;;;;;;;-0.79;100.00;99502.63;5019837;28;20061;-84
2022/01/08 05:52:02;;;;;;;85.00;37.05;;;;;;;-0.92;100.00;99491.22;5018885;28;20064;-85
2022/01/08 05:54:27;;;;;;;72.18;34.67;;;;;;;-0.88;100.00;99497.34;5019645;28;20037;-84
2022/01/08 05:56:52;;;;;;;77.85;34.20;;;;;;;-0.91;100.00;99494.72;5022212;28;20078;-84
2022/01/08 05:59:18;;;;;;;70.25;33.28;;;;;;;-1.00;100.00;99494.69;5021151;28;20022;-85
2022/01/08 06:01:43;;;;;;;78.65;34.63;;;;;;;-0.99;100.00;99499.03;5023376;28;20029;-85
2022/01/08 06:04:09;;;;;;;81.50;36.33;;;;;;;-0.96;100.00;99499.06;5022908;28;20026;-84
2022/01/08 06:06:35;;;;;;;78.22;34.55;;;;;;;-0.91;100.00;99506.09;5023710;28;20032;-85
2022/01/08 06:09:01;;;;;;;75.75;34.65;;;;;;;-0.82;100.00;99497.38;5025033;28;20049;-84
2022/01/08 06:11:26;;;;;;;75.22;35.42;;;;;;;-0.93;100.00;99502.56;5024693;28;20057;-84
2022/01/08 06:13:52;;;;;;;80.32;33.58;;;;;;;-0.89;100.00;99500.84;5024232;28;20029;-83
2022/01/08 06:16:17;;;;;;;67.60;31.48;;;;;;;-0.93;100.00;99504.31;5026019;28;20129;-84
2022/01/08 06:18:42;;;;;;;72.40;32.85;;;;;;;-0.97;100.00;99507.78;5024187;28;20113;-86
2022/01/08 06:21:08;;;;;;;74.82;34.17;;;;;;;-1.02;100.00;99500.78;5017427;28;20048;-87
2022/01/08 06:23:33;;;;;;;82.30;35.38;;;;;;;-1.10;100.00;99502.47;5016141;28;20368;-86
2022/01/08 06:25:59;;;;;;;79.70;34.53;;;;;;;-1.08;100.00;99505.97;5017539;28;20100;-85
2022/01/08 06:28:24;;;;;;;77.28;34.58;;;;;;;-1.15;100.00;99510.31;5018704;28;20038;-86
2022/01/08 06:30:49;;;;;;;81.97;36.75;;;;;;;-1.16;100.00;99516.41;5020809;28;20025;-85
2022/01/08 06:33:17;;;;;;;79.97;34.72;;;;;;;-1.02;100.00;99518.25;5020295;28;20028;-86
2022/01/08 06:35:44;;;;;;;79.97;35.15;;;;;;;-1.05;100.00;99516.50;5020151;28;20022;-85
2022/01/08 06:38:10;;;;;;;73.53;32.58;;;;;;;-0.96;100.00;99520.03;5021197;28;20081;-85
2022/01/08 06:40:35;;;;;;;71.38;31.48;;;;;;;-0.91;100.00;99526.19;5021625;28;20022;-85
2022/01/08 06:43:01;;;;;;;69.65;32.65;;;;;;;-1.04;100.00;99538.34;5021391;28;20048;-84
2022/01/08 06:45:26;;;;;;;70.80;31.98;;;;;;;-1.07;100.00;99539.19;5022898;28;20025;-85
2022/01/08 06:47:51;;;;;;;77.72;32.92;;;;;;;-1.11;100.00;99532.19;5020779;28;20022;-85
2022/01/08 06:50:17;;;;;;;62.63;30.50;;;;;;;-0.93;100.00;99535.78;5020221;28;20018;-86
2022/01/08 06:52:42;;;;;;;70.03;31.80;;;;;;;-1.07;100.00;99538.31;5021933;28;20431;-86
2022/01/08 06:55:08;;;;;;;66.72;31.75;;;;;;;-0.94;100.00;99537.53;5020471;28;20112;-85
2022/01/08 06:57:33;;;;;;;69.95;33.67;;;;;;;-1.03;100.00;99543.56;5014877;28;20022;-85
2022/01/08 07:00:01;;;;;;;60.78;30.00;;;;;;;-0.97;100.00;99549.72;5016248;28;20069;-84
2022/01/08 07:02:26;;;;;;;57.78;29.13;;;;;;;-0.97;100.00;99544.47;5016261;28;20033;-85
2022/01/08 07:04:52;;;;;;;69.72;32.40;;;;;;;-1.04;100.00;99538.34;5016845;28;20026;-85
2022/01/08 07:07:17;;;;;;;66.22;31.45;;;;;;;-1.05;100.00;99547.94;5017345;28;20086;-84
2022/01/08 07:09:43;;;;;;;66.22;30.20;;;;;;;-1.10;100.00;99546.16;5017778;28;20026;-84
2022/01/08 07:12:08;;;;;;;66.63;32.47;;;;;;;-1.12;100.00;99546.16;5019438;28;20557;-85
2022/01/08 07:14:33;;;;;;;84.38;34.97;;;;;;;-1.15;100.00;99546.13;5019372;28;20093;-85
2022/01/08 07:16:58;;;;;;;75.18;33.53;;;;;;;-1.18;100.00;99540.84;5019404;28;20062;-85
2022/01/08 07:19:24;;;;;;;78.55;36.35;;;;;;;-1.26;100.00;99554.78;5018909;28;20026;-85
2022/01/08 07:21:49;;;;;;;72.57;36.15;;;;;;;-1.20;100.00;99559.19;5020024;28;20037;-87
2022/01/08 07:24:15;;;;;;;76.68;35.58;;;;;;;-1.19;100.00;99553.09;5016445;28;20032;-85
2022/01/08 07:26:40;;;;;;;80.72;36.70;;;;;;;-1.19;100.00;99554.84;5015071;28;20055;-86
2022/01/08 07:29:05;;;;;;;85.78;36.92;;;;;;;-1.26;100.00;99570.50;5015007;28;20018;-85
2022/01/08 07:31:31;;;;;;;83.80;34.90;;;;;;;-1.12;100.00;99556.63;5021413;28;20464;-86
2022/01/08 07:33:56;;;;;;;73.88;36.22;;;;;;;-1.25;100.00;99560.91;5022794;23;20040;-76
2022/01/08 07:36:22;;;;;;;74.38;35.00;;;;;;;-1.30;100.00;99566.13;5013571;28;20026;-76
2022/01/08 07:38:47;;;;;;;82.35;36.10;;;;;;;-1.33;100.00;99563.47;4995843;28;20022;-77
2022/01/08 07:41:13;;;;;;;70.88;33.75;;;;;;;-1.39;100.00;99564.31;5008709;28;20036;-77
2022/01/08 07:43:39;;;;;;;74.93;35.30;;;;;;;-1.39;100.00;99560.84;5012428;28;20017;-76
2022/01/08 07:46:04;;;;;;;72.57;34.03;;;;;;;-1.42;100.00;99566.03;5012158;28;20502;-76
2022/01/08 07:48:29;;;;;;;79.10;33.97;;;;;;;-1.41;100.00;99559.91;5012912;28;20053;-76
2022/01/08 07:50:55;;;;;;;91.22;37.05;;;;;;;-1.36;100.00;99564.34;5013243;28;20080;-76
2022/01/08 07:53:20;;;;;;;78.82;36.25;;;;;;;-1.36;100.00;99566.06;5013372;28;20034;-76
2022/01/08 07:55:45;;;;;;;80.28;36.38;;;;;;;-1.36;100.00;99566.94;5013309;28;20440;-76
2022/01/08 07:58:10;;;;;;;81.97;34.80;;;;;;;-1.36;100.00;99568.69;5013314;28;20033;-76
2022/01/08 08:00:36;;;;;;;77.03;34.03;;;;;;;-1.32;100.00;99570.50;5013163;28;20475;-76
2022/01/08 08:03:02;;;;;;;75.18;34.42;;;;;;;-1.26;100.00;99575.75;5013299;28;20030;-76
2022/01/08 08:05:27;;;;;;;94.47;37.45;;;;;;;-1.32;100.00;99573.09;5013209;28;20080;-76
2022/01/08 08:07:54;;;;;;;78.78;33.97;;;;;;;-1.29;100.00;99567.88;5013334;28;20495;-76
2022/01/08 08:10:21;;;;;;;76.63;34.83;;;;;;;-1.23;100.00;99580.13;5013460;28;20368;-76
2022/01/08 08:12:46;;;;;;;77.07;35.10;;;;;;;-1.26;100.00;99575.75;5013440;28;20022;-76
2022/01/08 08:15:15;;;;;;;73.78;34.80;;;;;;;-1.19;100.00;99567.94;5013230;28;20026;-76
2022/01/08 08:17:40;;;;;;;75.72;34.28;;;;;;;-1.16;100.00;99570.59;5011901;28;20033;-76
2022/01/08 08:20:06;;;;;;;80.18;35.67;;;;;;;-1.18;100.00;99582.78;5012939;28;20022;-76
2022/01/08 08:22:31;;;;;;;80.60;36.95;;;;;;;-1.19;100.00;99583.66;5013133;28;20486;-76
2022/01/08 08:24:56;;;;;;;83.20;39.15;;;;;;;-1.14;100.00;99579.34;5013299;28;20022;-76
2022/01/08 08:27:22;;;;;;;78.50;35.90;;;;;;;-1.08;100.00;99581.97;5013170;28;20078;-76
2022/01/08 08:29:47;;;;;;;71.65;35.72;;;;;;;-1.13;100.00;99589.81;5011767;28;20026;-76
2022/01/08 08:32:12;;;;;;;71.57;35.42;;;;;;;-1.08;100.00;99584.59;5013043;28;20405;-76
2022/01/08 08:34:38;;;;;;;75.03;35.35;;;;;;;-1.04;100.00;99585.50;5012810;28;20030;-76
2022/01/08 08:37:03;;;;;;;74.13;34.00;;;;;;;-1.06;100.00;99582.88;5013304;28;20041;-76
2022/01/08 08:39:29;;;;;;;74.55;35.63;;;;;;;-1.11;100.00;99587.22;5012834;28;20061;-76
2022/01/08 08:41:54;;;;;;;74.97;34.33;;;;;;;-1.03;100.00;99584.66;5012930;28;20152;-76
2022/01/08 08:44:20;;;;;;;68.72;32.72;;;;;;;-1.07;100.00;99581.13;5011651;28;20414;-76
2022/01/08 08:46:45;;;;;;;78.38;36.85;;;;;;;-1.13;100.00;99573.22;5012879;28;20433;-76
2022/01/08 08:49:10;;;;;;;66.85;33.88;;;;;;;-0.96;100.00;99577.69;5013397;28;20026;-76
2022/01/08 08:51:35;;;;;;;73.30;33.65;;;;;;;-1.08;100.00;99581.97;5012758;28;20025;-76
2022/01/08 08:54:02;;;;;;;74.45;35.38;;;;;;;-1.05;100.00;99583.75;5013049;28;20541;-76
2022/01/08 08:56:28;;;;;;;71.05;32.60;;;;;;;-1.02;100.00;99584.66;5012811;28;20033;-76
2022/01/08 08:58:54;;;;;;;81.65;37.95;;;;;;;-1.08;100.00;99584.59;5011444;28;20056;-76
2022/01/08 09:01:19;;;;;;;83.43;34.20;;;;;;;-1.03;100.00;99585.50;5014174;28;20030;-77
2022/01/08 09:03:44;;;;;;;74.82;34.97;;;;;;;-1.04;100.00;99581.16;5016538;28;20033;-76
2022/01/08 09:06:10;;;;;;;75.30;34.08;;;;;;;-1.05;100.00;99579.38;5016292;28;20029;-76
2022/01/08 09:08:35;;;;;;;75.45;36.40;;;;;;;-1.00;100.00;99575.94;5016257;28;20026;-76
2022/01/08 09:11:00;;;;;;;80.90;36.33;;;;;;;-1.02;100.00;99579.41;5016460;28;20032;-76
2022/01/08 09:13:27;;;;;;;82.72;37.05;;;;;;;-0.96;100.00;99582.94;5016774;28;20026;-77
2022/01/08 09:15:52;;;;;;;78.75;36.88;;;;;;;-0.94;100.00;99578.56;5017920;28;20068;-79
2022/01/08 09:18:18;;;;;;;79.80;35.83;;;;;;;-0.90;100.00;99578.59;5017497;28;20021;-77
2022/01/08 09:20:43;;;;;;;72.88;36.67;;;;;;;-0.96;100.00;99577.69;5015020;28;20172;-78
2022/01/08 09:23:09;;;;;;;80.65;37.53;;;;;;;-0.97;100.00;99575.94;5017399;28;20105;-79
2022/01/08 09:25:34;;;;;;;79.80;36.22;;;;;;;-0.92;100.00;99574.22;5016533;28;20022;-78
2022/01/08 09:27:59;;;;;;;86.00;38.50;;;;;;;-0.93;100.00;99564.63;5015418;28;20467;-78
2022/01/08 09:30:25;;;;;;;78.88;37.28;;;;;;;-0.98;100.00;99556.69;5015262;28;20029;-78
2022/01/08 09:32:51;;;;;;;82.32;34.90;;;;;;;-0.91;100.00;99552.38;5014643;28;20026;-78
2022/01/08 09:35:17;;;;;;;81.35;38.95;;;;;;;-0.93;100.00;99562.00;5016946;28;20402;-78
2022/01/08 09:37:42;;;;;;;78.55;37.83;;;;;;;-0.86;100.00;99552.41;5015861;28;20491;-77
2022/01/08 09:40:11;;;;;;;78.50;36.63;;;;;;;-0.87;100.00;99553.25;5017100;28;20471;-78
2022/01/08 09:42:37;;;;;;;72.55;35.50;;;;;;;-0.86;100.00;99553.28;5016897;28;20490;-78
2022/01/08 09:45:03;;;;;;;79.25;37.03;;;;;;;-0.92;100.00;99548.00;5015575;28;20022;-77
2022/01/08 09:47:29;;;;;;;79.95;37.35;;;;;;;-0.85;100.00;99555.03;5014237;28;20383;-77
2022/01/08 09:49:54;;;;;;;85.95;37.22;;;;;;;-0.89;100.00;99553.25;5015959;28;20028;-76
2022/01/08 09:52:20;;;;;;;90.85;38.03;;;;;;;-0.88;100.00;99559.38;5014320;28;20108;-77
2022/01/08 09:54:45;;;;;;;81.22;36.90;;;;;;;-0.79;100.00;99552.44;5015717;28;20108;-76
2022/01/08 09:57:10;;;;;;;87.90;36.85;;;;;;;-0.80;100.00;99549.81;5014165;28;20026;-77
2022/01/08 09:59:36;;;;;;;80.45;36.10;;;;;;;-0.77;100.00;99556.84;5014120;28;20391;-79
2022/01/08 10:02:02;;;;;;;79.63;35.65;;;;;;;-0.84;100.00;99554.16;5015502;28;20032;-77
2022/01/08 10:04:35;;;;;;;73.63;34.88;;;;;;;-0.79;100.00;99552.44;5017241;28;20045;-79
2022/01/08 10:07:19;;;;;;;;;;;;;;;-0.68;100.00;99563.00;5015797;28;20505;-77
2022/01/08 10:10:12;;;;;;;77.68;34.00;;;;;;;-0.73;100.00;99555.97;5015312;28;20289;-78
2022/01/08 10:12:46;;;;;;;79.75;35.17;;;;;;;-0.64;100.00;99553.38;5013777;28;20025;-78
2022/01/08 10:17:58;;;;;;;83.25;34.65;;;;;;;-0.46;100.00;99551.69;5016737;28;19916;-78
2022/01/08 10:20:36;;;;;;;85.28;38.00;;;;;;;-0.49;100.00;99546.44;5015543;28;20022;-79
2022/01/08 10:23:07;;;;;;;83.22;39.80;;;;;;;-0.49;100.00;99549.06;5015700;28;20057;-78
2022/01/08 10:25:33;;;;;;;85.68;40.10;;;;;;;-0.41;100.00;99549.09;5015045;28;20061;-78
2022/01/08 10:27:58;;;;;;;89.60;40.67;;;;;;;-0.42;100.00;99548.22;5014889;28;20058;-78
2022/01/08 10:30:25;;;;;;;74.82;35.95;;;;;;;-0.36;100.00;99537.72;5016919;28;20032;-79
2022/01/08 10:32:55;;;;;;;86.85;37.70;;;;;;;-0.43;100.00;99530.72;5016614;28;20034;-79
2022/01/08 10:35:50;;;;;;;90.80;38.53;;;;;;;-0.52;100.00;99535.94;5013972;28;20115;-78
2022/01/08 10:38:16;;;;;;;83.90;38.08;;;;;;;-0.40;100.00;99529.84;5015236;28;20055;-77
2022/01/08 10:40:42;;;;;;;93.00;40.83;;;;;;;-0.46;100.00;99530.69;5014461;28;20017;-77
2022/01/08 10:43:27;;;;;;;93.85;42.60;;;;;;;-0.45;100.00;99524.59;5014510;28;20368;-77
2022/01/08 10:45:55;;;;;;;92.10;41.15;;;;;;;-0.44;100.00;99528.97;5014934;28;20080;-78
2022/01/08 10:48:30;;;;;;;91.80;39.05;;;;;;;-0.52;100.00;99525.44;5015184;28;20021;-78
2022/01/08 10:51:08;;;;;;;90.55;40.03;;;;;;;-0.49;100.00;99514.97;5015247;28;20092;-77
2022/01/08 10:53:59;;;;;;;95.32;40.30;;;;;;;-0.54;100.00;99514.94;5014691;28;20057;-77
2022/01/08 10:56:26;;;;;;;94.88;40.53;;;;;;;-0.43;100.00;99509.72;5014270;28;20033;-77
2022/01/08 10:58:56;;;;;;;94.20;40.70;;;;;;;-0.48;100.00;99501.84;5014470;28;20041;-77
2022/01/08 11:01:52;;;;;;;99.72;42.17;;;;;;;-0.52;100.00;99493.97;5013236;28;20033;-77
2022/01/08 11:04:37;;;;;;;98.97;39.60;;;;;;;-0.44;100.00;99492.25;5014516;28;20072;-77
2022/01/08 11:07:06;;;;;;;100.03;40.72;;;;;;;-0.41;100.00;99480.91;5014346;28;20028;-77
2022/01/08 11:09:31;;;;;;;99.88;41.63;;;;;;;-0.46;100.00;99479.13;5013662;28;20363;-77
2022/01/08 11:11:59;;;;;;;106.75;42.63;;;;;;;-0.44;100.00;99471.28;5012930;28;20486;-77
2022/01/08 11:17:31;;;;;;;109.18;43.15;;;;;;;-0.43;100.00;99467.75;5013977;28;20506;-74
2022/01/08 11:19:59;;;;;;;111.85;45.38;;;;;;;-0.45;100.00;99459.00;5013119;28;20064;-75
2022/01/08 11:22:28;;;;;;;114.28;45.55;;;;;;;-0.44;100.00;99455.53;5013776;28;20025;-74
2022/01/08 11:24:59;;;;;;;121.85;48.42;;;;;;;-0.46;100.00;99449.38;5012711;28;20026;-73
2022/01/08 11:27:40;;;;;;;104.97;42.08;;;;;;;-0.38;100.00;99439.78;5013734;28;20057;-74
2022/01/08 11:30:09;;;;;;;104.45;42.40;;;;;;;-0.31;100.00;99440.66;5013603;28;20018;-73
2022/01/08 11:32:35;;;;;;;101.68;40.70;;;;;;;-0.37;100.00;99430.19;5013432;28;20017;-73
2022/01/08 11:35:02;;;;;;;111.47;42.97;;;;;;;-0.35;100.00;99431.03;5013345;28;20025;-72